createdAt,value
2019-03-01T00:00:58.177Z,6.03
2019-03-01T00:03:24.369Z,6.65
2019-03-01T00:05:50.542Z,6.55
2019-03-01T00:08:16.704Z,8.25
2019-03-01T00:10:42.906Z,6.50
2019-03-01T00:13:09.156Z,7.20
2019-03-01T00:15:35.329Z,8.40
2019-03-01T00:18:01.552Z,5.50
2019-03-01T00:20:27.730Z,5.70
2019-03-01T00:22:53.967Z,7.72
2019-03-01T00:25:20.183Z,7.37
2019-03-01T00:27:46.348Z,7.90
2019-03-01T00:30:12.515Z,5.42
2019-03-01T00:32:38.714Z,7.10
2019-03-01T00:35:04.900Z,8.33
2019-03-01T00:37:31.076Z,7.40
2019-03-01T00:39:57.259Z,8.45
2019-03-01T00:42:23.427Z,8.60
2019-03-01T00:44:49.598Z,8.68
2019-03-01T00:47:15.769Z,9.85
2019-03-01T00:49:41.937Z,7.25
2019-03-01T00:52:08.135Z,6.62
2019-03-01T00:54:34.337Z,8.15
2019-03-01T00:57:00.513Z,7.20
2019-03-01T00:59:26.712Z,7.25
2019-03-01T01:01:52.891Z,8.10
2019-03-01T01:04:19.148Z,7.33
2019-03-01T01:06:45.436Z,7.67
2019-03-01T01:09:11.665Z,6.70
2019-03-01T01:14:21.674Z,6.75
2019-03-01T01:16:47.882Z,7.40
2019-03-01T01:19:14.053Z,5.28
2019-03-01T01:21:40.218Z,5.08
2019-03-01T01:24:06.423Z,8.60
2019-03-01T01:26:32.604Z,7.22
2019-03-01T01:28:58.784Z,7.00
2019-03-01T01:31:24.987Z,6.87
2019-03-01T01:33:51.220Z,7.25
2019-03-01T01:36:17.384Z,5.80
2019-03-01T01:38:43.571Z,6.08
2019-03-01T01:41:09.748Z,6.17
2019-03-01T01:43:36.016Z,5.47
2019-03-01T01:46:02.192Z,6.92
2019-03-01T01:48:28.394Z,6.87
2019-03-01T01:50:54.562Z,8.10
2019-03-01T01:53:20.736Z,7.33
2019-03-01T01:55:46.946Z,5.03
2019-03-01T01:58:13.123Z,7.87
2019-03-01T02:00:39.296Z,8.75
2019-03-01T02:03:05.584Z,6.90
2019-03-01T02:05:31.752Z,6.25
2019-03-01T02:07:57.928Z,4.95
2019-03-01T02:10:24.151Z,7.22
2019-03-01T02:12:50.363Z,6.50
2019-03-01T02:15:16.532Z,5.03
2019-03-01T02:17:42.711Z,5.37
2019-03-01T02:20:08.880Z,5.42
2019-03-01T02:22:35.111Z,6.15
2019-03-01T02:25:01.323Z,5.72
2019-03-01T02:27:27.501Z,7.47
2019-03-01T02:29:53.719Z,6.47
2019-03-01T02:32:19.895Z,5.58
2019-03-01T02:34:46.062Z,7.75
2019-03-01T02:37:12.271Z,6.03
2019-03-01T02:39:38.446Z,4.78
2019-03-01T02:42:04.625Z,6.22
2019-03-01T02:44:30.843Z,5.83
2019-03-01T02:46:57.045Z,5.85
2019-03-01T02:49:23.203Z,6.87
2019-03-01T02:51:49.555Z,5.90
2019-03-01T02:54:15.754Z,4.80
2019-03-01T02:56:41.940Z,6.97
2019-03-01T02:59:08.131Z,6.58
2019-03-01T03:01:34.315Z,7.83
2019-03-01T03:04:00.564Z,5.25
2019-03-01T03:06:26.767Z,5.67
2019-03-01T03:08:52.955Z,5.72
2019-03-01T03:11:19.129Z,5.33
2019-03-01T03:13:45.331Z,5.83
2019-03-01T03:16:11.492Z,6.87
2019-03-01T03:18:37.686Z,7.17
2019-03-01T03:21:03.855Z,6.42
2019-03-01T03:23:30.100Z,6.28
2019-03-01T03:25:56.293Z,5.78
2019-03-01T03:28:22.479Z,7.28
2019-03-01T03:30:48.687Z,5.62
2019-03-01T03:33:14.889Z,4.80
2019-03-01T03:35:41.041Z,6.87
2019-03-01T03:38:07.204Z,5.95
2019-03-01T03:40:33.397Z,6.15
2019-03-01T03:42:59.619Z,7.15
2019-03-01T03:45:25.798Z,6.20
2019-03-01T03:47:52.012Z,5.03
2019-03-01T03:50:18.158Z,7.03
2019-03-01T03:52:44.379Z,5.92
2019-03-01T03:55:10.540Z,6.12
2019-03-01T03:57:36.734Z,10.30
2019-03-01T04:00:02.910Z,5.30
2019-03-01T04:02:29.150Z,5.55
2019-03-01T04:04:55.327Z,7.75
2019-03-01T04:07:21.549Z,6.70
2019-03-01T04:09:47.725Z,6.78
2019-03-01T04:12:13.898Z,5.05
2019-03-01T04:14:40.092Z,7.47
2019-03-01T04:17:06.280Z,6.65
2019-03-01T04:19:32.444Z,5.97
2019-03-01T04:21:58.634Z,6.33
2019-03-01T04:24:24.808Z,6.55
2019-03-01T04:26:50.988Z,6.72
2019-03-01T04:29:17.178Z,5.65
2019-03-01T04:31:43.355Z,7.12
2019-03-01T04:34:09.620Z,5.58
2019-03-01T04:36:35.813Z,6.22
2019-03-01T04:39:01.984Z,6.62
2019-03-01T04:41:28.158Z,5.58
2019-03-01T04:43:54.368Z,7.17
2019-03-01T04:46:20.546Z,6.90
2019-03-01T04:48:46.717Z,7.90
2019-03-01T04:51:12.914Z,8.23
2019-03-01T04:53:39.146Z,8.40
2019-03-01T04:56:05.312Z,7.05
2019-03-01T04:58:31.506Z,9.03
2019-03-01T05:00:57.679Z,8.35
2019-03-01T05:03:23.858Z,10.20
2019-03-01T05:05:50.068Z,7.80
2019-03-01T05:08:16.231Z,7.65
2019-03-01T05:10:43.315Z,12.35
2019-03-01T05:13:09.628Z,10.53
2019-03-01T05:15:35.804Z,8.58
2019-03-01T05:18:01.978Z,8.70
2019-03-01T05:20:30.479Z,11.20
2019-03-01T05:22:56.251Z,7.08
2019-03-01T05:25:22.439Z,8.80
2019-03-01T05:27:48.632Z,12.33
2019-03-01T05:30:14.886Z,11.03
2019-03-01T05:32:41.125Z,14.00
2019-03-01T05:35:07.337Z,11.73
2019-03-01T05:37:33.508Z,10.70
2019-03-01T05:39:59.673Z,10.78
2019-03-01T05:42:25.916Z,11.45
2019-03-01T05:44:52.083Z,12.70
2019-03-01T05:47:18.256Z,10.98
2019-03-01T05:49:44.450Z,8.88
2019-03-01T05:52:10.876Z,9.08
2019-03-01T05:54:37.372Z,11.88
2019-03-01T05:57:03.571Z,10.82
2019-03-01T05:59:29.741Z,11.88
2019-03-01T06:01:55.912Z,9.00
2019-03-01T06:04:22.125Z,12.73
2019-03-01T06:06:48.300Z,10.63
2019-03-01T06:09:14.468Z,14.13
2019-03-01T06:11:40.687Z,9.95
2019-03-01T06:14:06.864Z,13.03
2019-03-01T06:16:33.064Z,12.53
2019-03-01T06:18:59.247Z,10.08
2019-03-01T06:21:25.435Z,14.55
2019-03-01T06:23:51.688Z,10.82
2019-03-01T06:26:17.880Z,9.15
2019-03-01T06:28:44.046Z,12.13
2019-03-01T06:31:10.211Z,10.85
2019-03-01T06:33:36.428Z,11.95
2019-03-01T06:36:02.609Z,9.10
2019-03-01T06:38:28.791Z,15.28
2019-03-01T06:40:54.991Z,10.08
2019-03-01T06:43:21.209Z,13.83
2019-03-01T06:45:47.402Z,10.75
2019-03-01T06:48:13.583Z,10.48
2019-03-01T06:50:39.748Z,12.28
2019-03-01T06:53:06.024Z,13.53
2019-03-01T06:55:32.223Z,10.55
2019-03-01T06:57:58.405Z,11.53
2019-03-01T07:00:24.579Z,8.43
2019-03-01T07:02:50.874Z,11.43
2019-03-01T07:05:17.051Z,10.45
2019-03-01T07:07:43.228Z,7.62
2019-03-01T07:10:09.423Z,11.03
2019-03-01T07:12:35.651Z,8.55
2019-03-01T07:15:01.825Z,10.98
2019-03-01T07:17:28.023Z,9.00
2019-03-01T07:19:54.198Z,8.40
2019-03-01T07:22:20.472Z,9.83
2019-03-01T07:24:46.675Z,9.38
2019-03-01T07:27:12.848Z,8.23
2019-03-01T07:29:39.012Z,9.30
2019-03-01T07:32:05.214Z,10.23
2019-03-01T07:34:31.384Z,11.43
2019-03-01T07:36:57.883Z,6.45
2019-03-01T07:39:24.079Z,8.35
2019-03-01T07:41:50.300Z,7.87
2019-03-01T07:44:16.520Z,9.50
2019-03-01T07:46:52.342Z,8.10
2019-03-01T07:49:10.671Z,6.95
2019-03-01T07:51:36.883Z,6.72
2019-03-01T07:54:03.054Z,7.80
2019-03-01T07:56:29.228Z,8.20
2019-03-01T07:58:57.567Z,8.83
2019-03-01T08:01:25.682Z,9.68
2019-03-01T08:03:53.134Z,6.35
2019-03-01T08:06:19.157Z,6.22
2019-03-01T08:08:45.333Z,7.85
2019-03-01T08:11:11.514Z,7.03
2019-03-01T08:13:37.764Z,7.90
2019-03-01T08:16:03.936Z,8.58
2019-03-01T08:18:30.105Z,5.75
2019-03-01T08:20:56.371Z,8.33
2019-03-01T08:23:22.557Z,8.08
2019-03-01T08:25:48.728Z,9.15
2019-03-01T08:28:14.929Z,8.30
2019-03-01T08:30:42.575Z,5.97
2019-03-01T08:33:09.008Z,6.62
2019-03-01T08:35:35.206Z,9.08
2019-03-01T08:38:01.369Z,6.65
2019-03-01T08:40:27.549Z,6.90
2019-03-01T08:42:54.771Z,9.93
2019-03-01T08:45:20.940Z,5.05
2019-03-01T08:47:48.752Z,7.35
2019-03-01T08:50:15.025Z,8.58
2019-03-01T08:52:41.294Z,8.75
2019-03-01T08:55:07.491Z,5.03
2019-03-01T08:57:33.672Z,7.55
2019-03-01T08:59:59.846Z,8.80
2019-03-01T09:02:26.144Z,6.45
2019-03-01T09:04:52.307Z,8.15
2019-03-01T09:07:18.480Z,8.18
2019-03-01T09:09:44.686Z,7.08
2019-03-01T09:12:10.921Z,7.20
2019-03-01T09:14:37.102Z,7.72
2019-03-01T09:17:03.295Z,7.97
2019-03-01T09:19:29.472Z,6.58
2019-03-01T09:21:55.740Z,6.35
2019-03-01T09:24:21.929Z,10.35
2019-03-01T09:26:48.101Z,7.90
2019-03-01T09:29:18.452Z,6.53
2019-03-01T09:31:42.256Z,8.05
2019-03-01T09:34:08.425Z,6.97
2019-03-01T09:36:34.598Z,7.78
2019-03-01T09:39:00.806Z,7.58
2019-03-01T09:41:26.984Z,6.90
2019-03-01T09:43:53.143Z,6.67
2019-03-01T09:46:20.820Z,8.53
2019-03-01T09:48:49.406Z,8.13
2019-03-01T09:51:15.996Z,8.60
2019-03-01T09:53:42.289Z,6.78
2019-03-01T09:56:09.712Z,8.38
2019-03-01T09:58:36.367Z,6.50
2019-03-01T10:01:02.557Z,5.87
2019-03-01T10:03:28.733Z,5.65
2019-03-01T10:05:54.923Z,7.90
2019-03-01T10:08:21.126Z,6.45
2019-03-01T10:10:47.317Z,7.00
2019-03-01T10:13:13.520Z,6.97
2019-03-01T10:15:39.711Z,6.35
2019-03-01T10:18:05.875Z,7.25
2019-03-01T10:20:32.051Z,6.22
2019-03-01T10:22:58.264Z,7.12
2019-03-01T10:25:24.440Z,6.72
2019-03-01T10:27:50.615Z,6.17
2019-03-01T10:30:17.274Z,7.67
2019-03-01T10:32:43.455Z,9.75
2019-03-01T10:35:09.621Z,6.15
2019-03-01T10:37:35.812Z,6.58
2019-03-01T10:40:01.989Z,6.95
2019-03-01T10:42:28.167Z,7.65
2019-03-01T10:44:54.356Z,9.85
2019-03-01T10:47:20.539Z,6.83
2019-03-01T10:49:46.718Z,6.50
2019-03-01T10:52:12.913Z,4.78
2019-03-01T10:54:39.085Z,6.20
2019-03-01T10:57:05.247Z,6.67
2019-03-01T10:59:31.477Z,6.45
2019-03-01T11:01:57.705Z,7.45
2019-03-01T11:04:23.874Z,5.87
2019-03-01T11:06:50.068Z,5.90
2019-03-01T11:09:16.248Z,6.17
2019-03-01T11:11:42.512Z,5.45
2019-03-01T11:14:08.708Z,7.87
2019-03-01T11:16:34.883Z,6.67
2019-03-01T11:19:01.050Z,5.40
2019-03-01T11:21:27.256Z,6.03
2019-03-01T11:23:53.432Z,6.70
2019-03-01T11:26:19.607Z,6.67
2019-03-01T11:28:45.808Z,6.03
2019-03-01T11:31:12.042Z,6.70
2019-03-01T11:33:38.219Z,7.42
2019-03-01T11:36:04.411Z,7.15
2019-03-01T11:38:30.571Z,6.58
2019-03-01T11:40:56.764Z,8.05
2019-03-01T11:43:22.928Z,6.35
2019-03-01T11:45:49.102Z,6.10
2019-03-01T11:48:15.315Z,6.05
2019-03-01T11:50:41.483Z,4.62
2019-03-01T11:53:07.691Z,4.80
2019-03-01T11:55:33.890Z,5.30
2019-03-01T11:58:00.058Z,6.70
2019-03-01T12:00:26.225Z,5.40
2019-03-01T12:02:52.443Z,4.90
2019-03-01T12:05:18.620Z,5.83
2019-03-01T12:07:44.792Z,5.53
2019-03-01T12:10:12.420Z,4.70
2019-03-01T12:12:38.755Z,5.10
2019-03-01T12:15:05.028Z,7.10
2019-03-01T12:17:31.227Z,6.22
2019-03-01T12:19:57.388Z,4.80
2019-03-01T12:22:23.567Z,6.08
2019-03-01T12:24:49.767Z,7.08
2019-03-01T12:27:15.942Z,5.08
2019-03-01T12:29:42.118Z,6.62
2019-03-01T12:32:08.319Z,5.45
2019-03-01T12:34:34.496Z,4.83
2019-03-01T12:37:00.671Z,4.90
2019-03-01T12:39:26.867Z,6.25
2019-03-01T12:41:53.099Z,5.78
2019-03-01T12:44:19.263Z,5.87
2019-03-01T12:46:45.458Z,5.92
2019-03-01T12:49:11.634Z,6.33
2019-03-01T12:51:37.812Z,4.42
2019-03-01T12:54:04.017Z,6.72
2019-03-01T12:56:30.192Z,5.42
2019-03-01T12:58:56.378Z,6.87
2019-03-01T13:01:22.664Z,5.35
2019-03-01T13:03:48.827Z,5.03
2019-03-01T13:06:14.999Z,5.00
2019-03-01T13:08:41.192Z,6.87
2019-03-01T13:11:07.443Z,6.72
2019-03-01T13:13:34.682Z,6.05
2019-03-01T13:16:01.543Z,5.17
2019-03-01T13:18:27.713Z,6.35
2019-03-01T13:20:53.886Z,4.53
2019-03-01T13:23:20.069Z,8.58
2019-03-01T13:25:46.267Z,5.92
2019-03-01T13:28:13.438Z,5.58
2019-03-01T13:30:39.708Z,6.42
2019-03-01T13:33:05.893Z,6.35
2019-03-01T13:35:32.099Z,6.90
2019-03-01T13:37:58.283Z,6.25
2019-03-01T13:40:25.451Z,6.97
2019-03-01T13:42:52.139Z,6.70
2019-03-01T13:45:18.384Z,6.25
2019-03-01T13:47:44.884Z,6.78
2019-03-01T13:50:11.211Z,6.58
2019-03-01T13:52:37.435Z,6.33
2019-03-01T13:55:03.615Z,5.20
2019-03-01T13:57:29.810Z,6.95
2019-03-01T13:59:55.993Z,6.72
2019-03-01T14:02:22.248Z,7.60
2019-03-01T14:04:48.447Z,6.47
2019-03-01T14:07:14.628Z,6.58
2019-03-01T14:09:40.795Z,5.78
2019-03-01T14:12:07.000Z,8.48
2019-03-01T14:14:33.163Z,7.08
2019-03-01T14:16:59.339Z,6.05
2019-03-01T14:19:25.550Z,5.78
2019-03-01T14:21:51.778Z,6.30
2019-03-01T14:24:17.952Z,8.28
2019-03-01T14:26:44.151Z,6.90
2019-03-01T14:29:12.807Z,7.62
2019-03-01T14:31:39.820Z,6.08
2019-03-01T14:34:08.304Z,6.03
2019-03-01T14:36:34.042Z,7.40
2019-03-01T14:39:00.208Z,6.97
2019-03-01T14:41:26.412Z,7.78
2019-03-01T14:43:52.587Z,7.17
2019-03-01T14:46:20.737Z,7.72
2019-03-01T14:48:46.999Z,6.95
2019-03-01T14:51:13.287Z,8.08
2019-03-01T14:53:39.469Z,7.25
2019-03-01T14:56:05.674Z,8.43
2019-03-01T14:58:31.842Z,7.72
2019-03-01T15:00:58.896Z,7.72
2019-03-01T15:03:25.279Z,10.72
2019-03-01T15:05:51.523Z,10.85
2019-03-01T15:08:17.708Z,8.80
2019-03-01T15:10:43.976Z,8.20
2019-03-01T15:13:10.139Z,6.97
2019-03-01T15:15:36.319Z,8.75
2019-03-01T15:18:02.519Z,7.58
2019-03-01T15:20:28.819Z,8.85
2019-03-01T15:22:54.986Z,11.90
2019-03-01T15:25:21.178Z,8.45
2019-03-01T15:27:47.356Z,10.88
2019-03-01T15:30:13.520Z,11.20
2019-03-01T15:32:39.712Z,12.03
2019-03-01T15:35:05.889Z,13.95
2019-03-01T15:37:34.973Z,11.40
2019-03-01T15:39:59.973Z,19.40
2019-03-01T15:42:26.141Z,13.65
2019-03-01T15:44:52.313Z,14.07
2019-03-01T15:47:18.513Z,12.35
2019-03-01T15:49:44.690Z,12.30
2019-03-01T15:52:13.929Z,10.82
2019-03-01T15:54:38.789Z,16.45
2019-03-01T15:57:04.965Z,10.40
2019-03-01T15:59:31.146Z,11.33
2019-03-01T16:01:57.364Z,14.65
2019-03-01T16:04:23.530Z,9.93
2019-03-01T16:06:55.255Z,11.80
2019-03-01T16:09:17.618Z,12.28
2019-03-01T16:11:43.911Z,11.83
2019-03-01T16:14:10.088Z,11.80
2019-03-01T16:16:36.295Z,10.00
2019-03-01T16:19:02.473Z,10.93
2019-03-01T16:21:28.692Z,15.75
2019-03-01T16:23:54.893Z,13.08
2019-03-01T16:26:29.663Z,15.38
2019-03-01T16:28:48.959Z,11.88
2019-03-01T16:31:15.281Z,16.37
2019-03-01T16:33:41.449Z,9.63
2019-03-01T16:36:07.624Z,11.33
2019-03-01T16:38:40.649Z,12.30
2019-03-01T16:41:07.468Z,15.23
2019-03-01T16:43:29.759Z,12.65
2019-03-01T16:45:56.387Z,15.45
2019-03-01T16:48:23.367Z,15.48
2019-03-01T16:50:49.590Z,15.48
2019-03-01T16:53:15.802Z,20.00
2019-03-01T16:55:41.959Z,19.67
2019-03-01T16:58:08.133Z,16.00
2019-03-01T17:00:34.332Z,15.90
2019-03-01T17:03:04.471Z,17.07
2019-03-01T17:05:30.671Z,21.48
2019-03-01T17:07:59.774Z,23.85
2019-03-01T17:10:26.510Z,14.15
2019-03-01T17:12:52.919Z,18.10
2019-03-01T17:15:19.132Z,14.90
2019-03-01T17:17:45.313Z,12.15
2019-03-01T17:20:11.480Z,15.58
2019-03-01T17:22:37.677Z,13.85
2019-03-01T17:25:03.851Z,11.38
2019-03-01T17:27:30.033Z,15.68
2019-03-01T17:29:56.238Z,17.57
2019-03-01T17:32:22.419Z,13.90
2019-03-01T17:34:48.588Z,18.10
2019-03-01T17:37:14.815Z,15.85
2019-03-01T17:39:40.985Z,12.93
2019-03-01T17:42:07.189Z,13.75
2019-03-01T17:44:33.383Z,11.10
2019-03-01T17:46:59.561Z,14.60
2019-03-01T17:49:25.729Z,13.95
2019-03-01T17:51:53.390Z,12.78
2019-03-01T17:54:22.299Z,11.03
2019-03-01T17:56:47.804Z,12.43
2019-03-01T17:59:14.007Z,9.58
2019-03-01T18:01:40.388Z,11.85
2019-03-01T18:04:06.520Z,12.40
2019-03-01T18:06:32.721Z,12.28
2019-03-01T18:08:58.880Z,13.90
2019-03-01T18:11:26.132Z,14.45
2019-03-01T18:13:52.466Z,11.30
2019-03-01T18:16:18.650Z,11.12
2019-03-01T18:18:48.821Z,9.23
2019-03-01T18:21:13.120Z,10.85
2019-03-01T18:23:40.175Z,10.53
2019-03-01T18:26:06.360Z,8.38
2019-03-01T18:28:32.553Z,10.00
2019-03-01T18:30:58.813Z,10.75
2019-03-01T18:33:24.983Z,12.82
2019-03-01T18:35:52.501Z,14.33
2019-03-01T18:38:19.139Z,11.35
2019-03-01T18:40:48.521Z,9.23
2019-03-01T18:43:13.814Z,10.80
2019-03-01T18:45:41.980Z,10.93
2019-03-01T18:48:08.771Z,10.38
2019-03-01T18:50:36.166Z,9.23
2019-03-01T18:53:03.719Z,12.63
2019-03-01T18:55:30.311Z,10.65
2019-03-01T18:57:56.497Z,11.10
2019-03-01T19:00:22.676Z,10.23
2019-03-01T19:02:48.860Z,7.87
2019-03-01T19:05:15.052Z,9.23
2019-03-01T19:07:41.244Z,8.25
2019-03-01T19:10:07.494Z,8.85
2019-03-01T19:12:33.697Z,10.25
2019-03-01T19:14:59.874Z,8.58
2019-03-01T19:17:26.041Z,8.45
2019-03-01T19:19:52.231Z,6.40
2019-03-01T19:22:18.398Z,7.90
2019-03-01T19:24:46.784Z,10.43
2019-03-01T19:27:15.605Z,9.28
2019-03-01T19:29:40.405Z,16.75
2019-03-01T19:32:06.595Z,21.37
2019-03-01T19:34:32.800Z,17.80
2019-03-01T19:36:58.978Z,15.10
2019-03-01T19:39:25.179Z,15.13
2019-03-01T19:41:54.635Z,14.85
2019-03-01T19:44:19.277Z,13.80
2019-03-01T19:46:47.727Z,12.90
2019-03-01T19:49:13.923Z,12.30
2019-03-01T19:51:40.154Z,20.32
2019-03-01T19:54:08.330Z,16.80
2019-03-01T19:56:34.256Z,15.38
2019-03-01T19:59:00.437Z,16.05
2019-03-01T20:01:26.713Z,13.55
2019-03-01T20:03:52.913Z,12.03
2019-03-01T20:06:19.740Z,12.05
2019-03-01T20:08:45.905Z,13.25
2019-03-01T20:11:12.172Z,12.65
2019-03-01T20:13:38.342Z,15.43
2019-03-01T20:16:04.515Z,13.50
2019-03-01T20:18:30.721Z,15.23
2019-03-01T20:20:56.956Z,32.40
2019-03-01T20:23:23.195Z,21.12
2019-03-01T20:25:50.959Z,66.05
2019-03-01T20:28:17.302Z,37.80
2019-03-01T20:30:43.507Z,24.32
2019-03-01T20:33:09.708Z,22.70
2019-03-01T20:35:35.879Z,27.55
2019-03-01T20:38:04.373Z,42.15
2019-03-01T20:40:29.997Z,24.72
2019-03-01T20:43:00.464Z,29.70
2019-03-01T20:45:26.026Z,20.40
2019-03-01T20:47:53.486Z,29.02
2019-03-01T20:50:20.104Z,19.32
2019-03-01T20:52:46.272Z,21.00
2019-03-01T20:55:12.472Z,24.12
2019-03-01T20:57:38.645Z,22.85
2019-03-01T21:00:04.914Z,26.12
2019-03-01T21:02:31.112Z,14.40
2019-03-01T21:04:57.282Z,18.50
2019-03-01T21:07:23.453Z,19.65
2019-03-01T21:09:49.664Z,19.05
2019-03-01T21:12:15.838Z,19.92
2019-03-01T21:14:42.004Z,25.77
2019-03-01T21:17:08.199Z,18.42
2019-03-01T21:19:34.369Z,17.00
2019-03-01T21:22:01.569Z,15.55
2019-03-01T21:24:28.475Z,19.50
2019-03-01T21:26:54.640Z,14.68
2019-03-01T21:29:20.824Z,21.95
2019-03-01T21:31:47.025Z,16.60
2019-03-01T21:34:14.886Z,17.42
2019-03-01T21:36:41.305Z,16.07
2019-03-01T21:39:07.506Z,14.68
2019-03-01T21:41:33.684Z,13.53
2019-03-01T21:43:59.856Z,12.80
2019-03-01T21:46:26.064Z,15.35
2019-03-01T21:48:52.246Z,21.73
2019-03-01T21:51:18.790Z,27.15
2019-03-01T21:53:46.206Z,14.80
2019-03-01T21:56:12.377Z,25.10
2019-03-01T21:58:41.844Z,19.35
2019-03-01T22:01:06.962Z,16.48
2019-03-01T22:03:33.280Z,21.30
2019-03-01T22:05:59.455Z,20.52
2019-03-01T22:08:25.655Z,21.80
2019-03-01T22:10:51.918Z,21.95
2019-03-01T22:13:18.086Z,16.85
2019-03-01T22:15:44.300Z,12.65
2019-03-01T22:18:10.482Z,16.30
2019-03-01T22:20:36.731Z,14.58
2019-03-01T22:23:02.939Z,12.93
2019-03-01T22:25:29.112Z,14.75
2019-03-01T22:27:57.631Z,11.35
2019-03-01T22:30:23.819Z,10.32
2019-03-01T22:32:50.068Z,15.50
2019-03-01T22:35:16.237Z,19.75
2019-03-01T22:37:42.436Z,16.90
2019-03-01T22:40:08.611Z,13.68
2019-03-01T22:42:34.783Z,18.12
2019-03-01T22:45:00.986Z,12.47
2019-03-01T22:47:27.158Z,12.58
2019-03-01T22:49:53.430Z,14.43
2019-03-01T22:52:19.627Z,17.65
2019-03-01T22:54:45.807Z,12.88
2019-03-01T22:57:11.980Z,10.48
2019-03-01T22:59:38.286Z,8.78
2019-03-01T23:02:07.980Z,8.68
2019-03-01T23:04:32.351Z,11.15
2019-03-01T23:06:58.529Z,11.60
2019-03-01T23:09:24.699Z,9.85
2019-03-01T23:11:50.892Z,11.00
2019-03-01T23:14:17.076Z,15.58
2019-03-01T23:16:43.282Z,10.78
2019-03-01T23:19:12.648Z,9.70
2019-03-01T23:21:37.581Z,11.48
2019-03-01T23:24:03.753Z,11.10
2019-03-01T23:26:29.952Z,12.80
2019-03-01T23:28:56.126Z,10.40
2019-03-01T23:31:22.330Z,17.75
2019-03-01T23:33:48.505Z,12.75
2019-03-01T23:36:14.671Z,9.60
2019-03-01T23:38:40.858Z,9.65
2019-03-01T23:41:07.760Z,10.65
2019-03-01T23:43:35.006Z,15.40
2019-03-01T23:46:01.204Z,12.15
2019-03-01T23:48:27.370Z,11.08
2019-03-01T23:50:53.645Z,10.48
2019-03-01T23:53:19.824Z,10.58
2019-03-01T23:55:45.996Z,10.00
2019-03-01T23:58:12.628Z,16.20
